createdAt,value
2019-01-30T00:00:14.660Z,17.53
2019-01-30T00:02:43.146Z,25.70
2019-01-30T00:05:09.721Z,15.70
2019-01-30T00:07:36.929Z,15.93
2019-01-30T00:10:08.103Z,18.40
2019-01-30T00:12:34.664Z,13.43
2019-01-30T00:15:00.998Z,17.73
2019-01-30T00:17:27.614Z,13.77
2019-01-30T00:19:54.944Z,14.23
2019-01-30T00:22:21.230Z,14.07
2019-01-30T00:24:47.570Z,19.50
2019-01-30T00:27:14.132Z,17.17
2019-01-30T00:29:40.457Z,22.27
2019-01-30T00:32:06.797Z,16.53
2019-01-30T00:34:33.108Z,22.50
2019-01-30T00:36:59.727Z,17.93
2019-01-30T00:39:26.292Z,16.57
2019-01-30T00:41:52.612Z,17.43
2019-01-30T00:44:18.935Z,19.07
2019-01-30T00:46:45.516Z,19.03
2019-01-30T00:49:11.836Z,21.47
2019-01-30T00:51:38.134Z,23.80
2019-01-30T00:54:04.469Z,16.80
2019-01-30T00:56:30.757Z,28.90
2019-01-30T00:58:57.341Z,19.63
2019-01-30T01:01:23.635Z,21.23
2019-01-30T01:03:50.228Z,16.23
2019-01-30T01:06:16.770Z,27.30
2019-01-30T01:08:43.145Z,18.73
2019-01-30T01:11:09.880Z,15.50
2019-01-30T01:13:36.198Z,24.40
2019-01-30T01:16:02.711Z,22.57
2019-01-30T01:18:29.759Z,19.10
2019-01-30T01:20:56.084Z,17.73
2019-01-30T01:23:22.510Z,24.57
2019-01-30T01:25:49.098Z,22.63
2019-01-30T01:28:15.695Z,17.40
2019-01-30T01:30:43.307Z,21.83
2019-01-30T01:33:09.629Z,20.27
2019-01-30T01:35:35.949Z,19.67
2019-01-30T01:38:02.462Z,17.13
2019-01-30T01:40:28.793Z,19.17
2019-01-30T01:42:55.112Z,19.50
2019-01-30T01:45:23.469Z,20.90
2019-01-30T01:47:49.862Z,23.03
2019-01-30T01:50:19.037Z,23.10
2019-01-30T01:52:45.837Z,22.73
2019-01-30T01:55:13.003Z,19.73
2019-01-30T01:57:39.411Z,21.40
2019-01-30T02:00:13.494Z,24.57
2019-01-30T02:02:41.266Z,26.53
2019-01-30T02:05:11.492Z,24.10
2019-01-30T02:07:37.785Z,19.50
2019-01-30T02:10:09.494Z,21.23
2019-01-30T02:12:37.339Z,23.20
2019-01-30T02:15:09.347Z,24.50
2019-01-30T02:17:35.646Z,22.73
2019-01-30T02:20:10.151Z,19.07
2019-01-30T02:22:36.737Z,28.20
2019-01-30T02:25:07.818Z,27.90
2019-01-30T02:27:34.253Z,25.87
2019-01-30T02:30:00.549Z,31.87
2019-01-30T02:32:27.142Z,27.90
2019-01-30T02:34:53.703Z,25.30
2019-01-30T02:37:20.032Z,23.00
2019-01-30T02:39:46.339Z,26.10
2019-01-30T02:42:12.905Z,25.40
2019-01-30T02:44:39.221Z,27.47
2019-01-30T02:47:05.536Z,26.53
2019-01-30T02:49:32.146Z,24.30
2019-01-30T02:51:58.706Z,28.13
2019-01-30T02:54:25.032Z,25.70
2019-01-30T02:56:51.570Z,25.90
2019-01-30T02:59:18.146Z,24.67
2019-01-30T03:01:49.028Z,25.80
2019-01-30T03:04:15.347Z,23.93
2019-01-30T03:06:41.779Z,29.40
2019-01-30T03:09:08.337Z,24.83
2019-01-30T03:11:34.937Z,29.33
2019-01-30T03:14:01.246Z,22.00
2019-01-30T03:16:27.845Z,24.53
2019-01-30T03:18:54.254Z,32.67
2019-01-30T03:21:20.855Z,21.70
2019-01-30T03:23:48.458Z,20.40
2019-01-30T03:26:14.797Z,22.77
2019-01-30T03:28:41.093Z,25.03
2019-01-30T03:31:18.043Z,24.73
2019-01-30T03:33:37.548Z,22.43
2019-01-30T03:36:03.911Z,19.90
2019-01-30T03:38:30.198Z,20.87
2019-01-30T03:40:56.774Z,23.53
2019-01-30T03:43:23.078Z,25.20
2019-01-30T03:45:49.393Z,23.63
2019-01-30T03:48:16.567Z,22.10
2019-01-30T03:50:42.906Z,22.67
2019-01-30T03:53:09.563Z,21.23
2019-01-30T03:55:36.126Z,21.20
2019-01-30T03:58:02.718Z,27.80
2019-01-30T04:00:30.052Z,23.93
2019-01-30T04:02:56.633Z,18.60
2019-01-30T04:05:23.170Z,24.53
2019-01-30T04:07:50.580Z,19.00
2019-01-30T04:10:20.914Z,24.40
2019-01-30T04:12:47.451Z,18.23
2019-01-30T04:15:14.300Z,20.33
2019-01-30T04:17:40.818Z,21.70
2019-01-30T04:20:12.969Z,21.03
2019-01-30T04:22:39.554Z,16.23
2019-01-30T04:25:07.921Z,21.77
2019-01-30T04:27:35.596Z,27.10
2019-01-30T04:30:10.218Z,17.57
2019-01-30T04:32:36.855Z,15.73
2019-01-30T04:35:05.337Z,16.20
2019-01-30T04:37:31.931Z,17.43
2019-01-30T04:39:58.502Z,19.30
2019-01-30T04:42:25.086Z,17.80
2019-01-30T04:44:51.394Z,15.43
2019-01-30T04:47:17.959Z,19.00
2019-01-30T04:49:44.305Z,21.30
2019-01-30T04:52:11.154Z,18.70
2019-01-30T04:54:37.515Z,16.17
2019-01-30T04:57:03.917Z,25.50
2019-01-30T04:59:30.214Z,20.73
2019-01-30T05:01:56.572Z,17.03
2019-01-30T05:04:22.893Z,22.30
2019-01-30T05:06:49.465Z,22.50
2019-01-30T05:09:15.754Z,22.57
2019-01-30T05:11:42.322Z,23.27
2019-01-30T05:14:08.656Z,23.40
2019-01-30T05:16:34.958Z,21.23
2019-01-30T05:19:01.279Z,18.50
2019-01-30T05:21:27.863Z,19.80
2019-01-30T05:23:54.233Z,16.70
2019-01-30T05:26:20.684Z,17.20
2019-01-30T05:28:47.004Z,16.10
2019-01-30T05:31:13.362Z,20.63
2019-01-30T05:33:40.010Z,19.20
2019-01-30T05:36:06.498Z,20.07
2019-01-30T05:38:33.073Z,15.23
2019-01-30T05:40:59.644Z,15.87
2019-01-30T05:43:25.972Z,16.20
2019-01-30T05:45:52.508Z,18.13
2019-01-30T05:48:18.867Z,20.10
2019-01-30T05:50:45.178Z,18.57
2019-01-30T05:53:11.512Z,22.47
2019-01-30T05:55:38.062Z,17.80
2019-01-30T05:58:04.631Z,16.23
2019-01-30T06:00:34.585Z,18.60
2019-01-30T06:03:00.946Z,18.33
2019-01-30T06:05:27.501Z,19.43
2019-01-30T06:07:53.824Z,20.73
2019-01-30T06:10:20.492Z,15.47
2019-01-30T06:12:47.067Z,24.00
2019-01-30T06:15:16.696Z,18.63
2019-01-30T06:17:43.312Z,18.87
2019-01-30T06:20:24.615Z,15.27
2019-01-30T06:22:51.860Z,16.20
2019-01-30T06:25:18.240Z,13.90
2019-01-30T06:27:44.852Z,17.67
2019-01-30T06:30:17.398Z,18.57
2019-01-30T06:32:43.785Z,14.60
2019-01-30T06:35:10.761Z,14.43
2019-01-30T06:37:37.065Z,19.10
2019-01-30T06:40:11.980Z,15.23
2019-01-30T06:42:38.707Z,14.70
2019-01-30T06:45:07.330Z,16.57
2019-01-30T06:47:33.641Z,13.10
2019-01-30T06:50:00.304Z,18.07
2019-01-30T06:52:26.882Z,18.30
2019-01-30T06:54:53.463Z,14.73
2019-01-30T06:57:20.016Z,13.43
2019-01-30T06:59:46.329Z,22.83
2019-01-30T07:02:12.750Z,17.13
2019-01-30T07:04:39.087Z,12.20
2019-01-30T07:07:05.636Z,12.97
2019-01-30T07:09:32.229Z,20.13
2019-01-30T07:11:58.779Z,17.00
2019-01-30T07:14:25.137Z,14.93
2019-01-30T07:16:51.709Z,13.10
2019-01-30T07:19:18.065Z,14.03
2019-01-30T07:21:44.498Z,11.60
2019-01-30T07:24:10.820Z,14.40
2019-01-30T07:26:38.279Z,12.37
2019-01-30T07:29:04.853Z,13.53
2019-01-30T07:31:31.520Z,12.10
2019-01-30T07:33:58.140Z,11.63
2019-01-30T07:36:24.703Z,14.70
2019-01-30T07:38:51.274Z,15.30
2019-01-30T07:41:17.849Z,13.67
2019-01-30T07:43:44.185Z,13.43
2019-01-30T07:46:10.500Z,14.27
2019-01-30T07:48:36.817Z,13.40
2019-01-30T07:51:03.488Z,10.70
2019-01-30T07:53:29.816Z,13.27
2019-01-30T07:55:56.148Z,15.70
2019-01-30T07:58:22.475Z,13.43
2019-01-30T08:00:48.834Z,14.40
2019-01-30T08:03:15.454Z,13.37
2019-01-30T08:05:42.806Z,16.57
2019-01-30T08:08:09.564Z,12.47
2019-01-30T08:10:36.159Z,16.03
2019-01-30T08:13:03.002Z,17.53
2019-01-30T08:15:29.413Z,11.93
2019-01-30T08:17:55.719Z,8.73
2019-01-30T08:20:22.031Z,11.07
2019-01-30T08:22:49.480Z,17.30
2019-01-30T08:25:18.682Z,14.80
2019-01-30T08:27:45.405Z,12.77
2019-01-30T08:30:23.542Z,9.93
2019-01-30T08:32:50.203Z,12.80
2019-01-30T08:35:19.070Z,12.73
2019-01-30T08:37:45.959Z,12.73
2019-01-30T08:40:12.846Z,13.33
2019-01-30T08:42:39.545Z,12.50
2019-01-30T08:45:17.038Z,10.23
2019-01-30T08:47:43.456Z,10.23
2019-01-30T08:50:12.363Z,17.97
2019-01-30T08:52:38.831Z,10.83
2019-01-30T08:55:09.983Z,12.50
2019-01-30T08:57:36.305Z,13.23
2019-01-30T09:00:11.037Z,12.03
2019-01-30T09:02:37.335Z,15.60
2019-01-30T09:05:07.609Z,14.23
2019-01-30T09:07:43.652Z,13.00
2019-01-30T09:10:07.634Z,9.43
2019-01-30T09:12:34.188Z,12.77
2019-01-30T09:15:00.521Z,9.13
2019-01-30T09:17:27.940Z,12.80
2019-01-30T09:19:54.500Z,12.67
2019-01-30T09:22:21.104Z,16.10
2019-01-30T09:24:47.411Z,11.60
2019-01-30T09:27:13.737Z,12.57
2019-01-30T09:29:40.042Z,6.83
2019-01-30T09:32:06.388Z,11.33
2019-01-30T09:34:32.735Z,9.23
2019-01-30T09:36:59.060Z,9.90
2019-01-30T09:39:25.383Z,9.20
2019-01-30T09:41:51.960Z,9.90
2019-01-30T09:44:18.275Z,10.17
2019-01-30T09:46:44.584Z,10.27
2019-01-30T09:49:10.910Z,10.33
2019-01-30T09:51:37.230Z,9.63
2019-01-30T09:54:03.846Z,10.03
2019-01-30T09:56:30.204Z,11.87
2019-01-30T09:58:56.512Z,11.00
2019-01-30T10:01:23.245Z,7.90
2019-01-30T10:03:49.793Z,8.37
2019-01-30T10:06:16.403Z,11.70
2019-01-30T10:08:42.982Z,8.07
2019-01-30T10:11:09.325Z,7.40
2019-01-30T10:13:37.516Z,7.80
2019-01-30T10:16:04.164Z,7.63
2019-01-30T10:18:30.454Z,5.30
2019-01-30T10:20:56.835Z,8.47
2019-01-30T10:23:23.162Z,8.83
2019-01-30T10:25:50.836Z,8.90
2019-01-30T10:28:17.337Z,7.67
2019-01-30T10:30:46.355Z,11.00
2019-01-30T10:33:14.022Z,7.13
2019-01-30T10:35:41.600Z,7.30
2019-01-30T10:38:07.939Z,7.70
2019-01-30T10:40:34.232Z,5.00
2019-01-30T10:43:00.848Z,7.10
2019-01-30T10:45:27.200Z,5.27
2019-01-30T10:47:53.981Z,6.87
2019-01-30T10:50:23.968Z,7.33
2019-01-30T10:52:50.382Z,7.57
2019-01-30T10:55:20.390Z,7.93
2019-01-30T10:57:49.559Z,7.13
2019-01-30T11:00:26.155Z,12.00
2019-01-30T11:02:52.498Z,8.27
2019-01-30T11:05:18.939Z,6.97
2019-01-30T11:07:45.275Z,13.57
2019-01-30T11:10:15.745Z,5.37
2019-01-30T11:12:42.074Z,8.10
2019-01-30T11:15:24.533Z,9.03
2019-01-30T11:17:51.442Z,7.03
2019-01-30T11:20:21.951Z,6.60
2019-01-30T11:22:47.843Z,8.70
2019-01-30T11:25:28.261Z,9.20
2019-01-30T11:27:55.863Z,7.30
2019-01-30T11:30:22.301Z,5.93
2019-01-30T11:32:48.614Z,7.83
2019-01-30T11:35:15.252Z,8.73
2019-01-30T11:37:41.796Z,11.60
2019-01-30T11:40:16.069Z,8.10
2019-01-30T11:42:42.772Z,8.70
2019-01-30T11:45:25.574Z,8.77
2019-01-30T11:47:52.896Z,5.33
2019-01-30T11:50:20.272Z,8.60
2019-01-30T11:52:46.578Z,5.90
2019-01-30T11:55:17.633Z,10.80
2019-01-30T11:57:44.246Z,7.87
2019-01-30T12:00:22.958Z,6.83
2019-01-30T12:02:51.341Z,5.07
2019-01-30T12:05:17.952Z,6.30
2019-01-30T12:07:44.294Z,7.83
2019-01-30T12:10:14.357Z,8.30
2019-01-30T12:12:41.482Z,6.97
2019-01-30T12:15:15.335Z,9.70
2019-01-30T12:17:41.922Z,7.43
2019-01-30T12:20:11.506Z,10.10
2019-01-30T12:22:37.815Z,11.10
2019-01-30T12:25:09.073Z,10.20
2019-01-30T12:27:35.421Z,8.57
2019-01-30T12:30:04.740Z,6.20
2019-01-30T12:32:31.368Z,10.07
2019-01-30T12:34:57.989Z,7.40
2019-01-30T12:37:24.315Z,6.43
2019-01-30T12:39:50.931Z,8.30
2019-01-30T12:42:23.130Z,10.23
2019-01-30T12:44:49.449Z,8.43
2019-01-30T12:47:19.885Z,10.30
2019-01-30T12:49:43.969Z,7.63
2019-01-30T12:52:10.674Z,11.43
2019-01-30T12:54:37.015Z,9.13
2019-01-30T12:57:03.603Z,8.70
2019-01-30T12:59:29.950Z,8.23
2019-01-30T13:01:56.557Z,10.70
2019-01-30T13:04:23.117Z,13.00
2019-01-30T13:06:49.714Z,10.80
2019-01-30T13:09:16.031Z,9.93
2019-01-30T13:11:42.335Z,10.00
2019-01-30T13:14:08.662Z,8.03
2019-01-30T13:16:35.223Z,10.03
2019-01-30T13:19:01.854Z,9.77
2019-01-30T13:21:28.499Z,12.07
2019-01-30T13:23:54.870Z,13.47
2019-01-30T13:26:21.191Z,12.10
2019-01-30T13:28:47.790Z,11.50
2019-01-30T13:31:14.480Z,12.70
2019-01-30T13:33:41.121Z,14.80
2019-01-30T13:36:07.696Z,10.17
2019-01-30T13:38:34.330Z,11.70
2019-01-30T13:41:00.937Z,8.37
2019-01-30T13:43:27.548Z,11.47
2019-01-30T13:45:53.907Z,14.60
2019-01-30T13:48:20.659Z,7.77
2019-01-30T13:50:46.972Z,12.90
2019-01-30T13:53:14.411Z,12.33
2019-01-30T13:55:41.121Z,9.37
2019-01-30T13:58:07.530Z,12.40
2019-01-30T14:00:36.132Z,9.97
2019-01-30T14:03:03.571Z,10.33
2019-01-30T14:05:30.392Z,13.93
2019-01-30T14:07:57.895Z,11.67
2019-01-30T14:10:27.012Z,11.27
2019-01-30T14:12:52.785Z,10.23
2019-01-30T14:15:23.738Z,13.87
2019-01-30T14:17:50.375Z,11.50
2019-01-30T14:20:18.207Z,16.73
2019-01-30T14:22:45.221Z,14.90
2019-01-30T14:25:13.798Z,13.10
2019-01-30T14:27:40.157Z,11.77
2019-01-30T14:30:17.809Z,13.23
2019-01-30T14:32:44.358Z,17.07
2019-01-30T14:35:11.227Z,13.17
2019-01-30T14:37:37.702Z,21.87
2019-01-30T14:40:12.711Z,15.30
2019-01-30T14:42:39.325Z,16.07
2019-01-30T14:45:10.991Z,11.00
2019-01-30T14:47:37.729Z,12.37
2019-01-30T14:50:09.875Z,13.70
2019-01-30T14:52:36.470Z,17.80
2019-01-30T14:55:05.944Z,11.07
2019-01-30T14:57:32.291Z,11.43
2019-01-30T14:59:58.909Z,13.10
2019-01-30T15:02:25.234Z,16.80
2019-01-30T15:04:51.886Z,10.67
2019-01-30T15:07:28.129Z,14.67
2019-01-30T15:09:46.465Z,19.03
2019-01-30T15:12:12.793Z,15.27
2019-01-30T15:14:39.093Z,20.30
2019-01-30T15:17:05.438Z,15.40
2019-01-30T15:19:31.958Z,15.30
2019-01-30T15:21:58.524Z,13.40
2019-01-30T15:24:24.835Z,19.47
2019-01-30T15:26:52.307Z,12.87
2019-01-30T15:29:18.921Z,12.53
2019-01-30T15:31:45.252Z,14.83
2019-01-30T15:34:11.600Z,19.00
2019-01-30T15:36:38.196Z,16.23
2019-01-30T15:39:07.055Z,17.00
2019-01-30T15:41:33.993Z,16.23
2019-01-30T15:44:00.596Z,19.53
2019-01-30T15:46:27.030Z,16.83
2019-01-30T15:48:53.585Z,15.17
2019-01-30T15:51:19.911Z,16.70
2019-01-30T15:53:46.479Z,16.80
2019-01-30T15:56:12.825Z,13.13
2019-01-30T15:58:39.374Z,24.53
2019-01-30T16:01:10.438Z,14.93
2019-01-30T16:03:36.788Z,21.63
2019-01-30T16:06:03.650Z,19.00
2019-01-30T16:08:29.984Z,19.40
2019-01-30T16:10:57.695Z,29.23
2019-01-30T16:13:24.278Z,22.90
2019-01-30T16:15:57.998Z,18.90
2019-01-30T16:18:24.622Z,16.90
2019-01-30T16:20:51.204Z,20.57
2019-01-30T16:23:20.842Z,22.10
2019-01-30T16:25:47.135Z,20.13
2019-01-30T16:28:13.526Z,22.53
2019-01-30T16:30:42.188Z,18.07
2019-01-30T16:33:08.303Z,13.87
2019-01-30T16:35:34.909Z,16.70
2019-01-30T16:38:01.534Z,18.87
2019-01-30T16:40:28.171Z,18.47
2019-01-30T16:42:55.591Z,18.90
2019-01-30T16:45:28.623Z,16.00
2019-01-30T16:47:55.396Z,17.87
2019-01-30T16:50:22.198Z,14.87
2019-01-30T16:52:48.625Z,21.10
2019-01-30T16:55:17.763Z,18.20
2019-01-30T16:57:44.445Z,19.67
2019-01-30T17:00:22.197Z,16.53
2019-01-30T17:02:48.891Z,18.20
2019-01-30T17:05:16.049Z,18.30
2019-01-30T17:07:42.354Z,23.43
2019-01-30T17:10:13.283Z,19.63
2019-01-30T17:12:39.899Z,21.57
2019-01-30T17:15:11.226Z,20.07
2019-01-30T17:17:37.532Z,19.97
2019-01-30T17:20:12.340Z,16.43
2019-01-30T17:22:39.011Z,18.13
2019-01-30T17:25:07.475Z,19.80
2019-01-30T17:27:34.058Z,21.37
2019-01-30T17:30:00.404Z,22.30
2019-01-30T17:32:27.049Z,18.33
2019-01-30T17:34:54.425Z,23.93
2019-01-30T17:37:20.827Z,19.90
2019-01-30T17:39:47.439Z,28.50
2019-01-30T17:42:14.040Z,21.23
2019-01-30T17:44:41.399Z,22.70
2019-01-30T17:47:08.127Z,19.27
2019-01-30T17:49:35.789Z,16.53
2019-01-30T17:52:02.117Z,21.20
2019-01-30T17:54:28.440Z,19.23
2019-01-30T17:56:54.763Z,17.63
2019-01-30T17:59:21.083Z,22.23
2019-01-30T18:01:47.398Z,23.83
2019-01-30T18:04:13.714Z,23.63
2019-01-30T18:06:40.296Z,16.70
2019-01-30T18:09:06.948Z,17.77
2019-01-30T18:11:33.968Z,19.20
2019-01-30T18:14:00.554Z,18.27
2019-01-30T18:16:27.036Z,19.17
2019-01-30T18:18:54.665Z,22.97
2019-01-30T18:21:21.210Z,15.17
2019-01-30T18:23:47.819Z,27.63
2019-01-30T18:26:14.427Z,24.63
2019-01-30T18:28:40.999Z,23.20
2019-01-30T18:31:07.597Z,17.30
2019-01-30T18:33:33.909Z,19.20
2019-01-30T18:36:00.292Z,18.67
2019-01-30T18:38:26.615Z,19.40
2019-01-30T18:40:52.990Z,19.90
2019-01-30T18:43:19.551Z,18.53
2019-01-30T18:45:46.124Z,19.10
2019-01-30T18:48:12.455Z,23.90
2019-01-30T18:50:38.925Z,21.30
2019-01-30T18:53:05.618Z,22.53
2019-01-30T18:55:32.302Z,22.33
2019-01-30T18:57:58.643Z,22.33
2019-01-30T19:00:35.256Z,17.40
2019-01-30T19:03:04.283Z,18.40
2019-01-30T19:05:32.316Z,22.17
2019-01-30T19:07:58.663Z,21.10
2019-01-30T19:10:25.163Z,22.77
2019-01-30T19:12:51.866Z,20.73
2019-01-30T19:15:22.310Z,21.17
2019-01-30T19:17:49.072Z,16.60
2019-01-30T19:20:26.682Z,25.70
2019-01-30T19:22:53.468Z,23.70
2019-01-30T19:25:20.129Z,20.47
2019-01-30T19:27:46.808Z,21.23
2019-01-30T19:30:23.755Z,24.90
2019-01-30T19:32:50.149Z,19.90
2019-01-30T19:35:17.072Z,22.50
2019-01-30T19:37:43.628Z,22.60
2019-01-30T19:40:12.604Z,25.57
2019-01-30T19:42:39.281Z,22.03
2019-01-30T19:45:11.425Z,22.20
2019-01-30T19:47:38.133Z,22.93
2019-01-30T19:50:18.630Z,22.83
2019-01-30T19:52:45.071Z,24.07
2019-01-30T19:55:13.051Z,24.70
2019-01-30T19:57:39.425Z,21.77
2019-01-30T20:00:16.948Z,28.10
2019-01-30T20:02:43.427Z,27.23
2019-01-30T20:05:12.968Z,27.90
2019-01-30T20:07:39.684Z,24.17
2019-01-30T20:10:17.154Z,24.87
2019-01-30T20:12:43.831Z,24.03
2019-01-30T20:15:10.997Z,28.90
2019-01-30T20:17:37.565Z,30.67
2019-01-30T20:20:11.217Z,23.33
2019-01-30T20:22:37.857Z,28.17
2019-01-30T20:25:09.865Z,24.87
2019-01-30T20:27:36.215Z,23.20
2019-01-30T20:30:10.746Z,24.87
2019-01-30T20:32:37.403Z,25.43
2019-01-30T20:35:06.059Z,28.17
2019-01-30T20:37:32.668Z,27.33
2019-01-30T20:39:59.367Z,24.20
2019-01-30T20:42:25.693Z,22.93
2019-01-30T20:44:52.308Z,27.93
2019-01-30T20:47:18.986Z,30.10
2019-01-30T20:49:45.303Z,24.90
2019-01-30T20:52:11.705Z,27.10
2019-01-30T20:54:38.106Z,30.20
2019-01-30T20:57:04.636Z,26.50
2019-01-30T20:59:31.205Z,28.40
2019-01-30T21:01:57.811Z,26.97
2019-01-30T21:04:24.202Z,27.23
2019-01-30T21:06:50.579Z,26.73
2019-01-30T21:09:16.978Z,29.53
2019-01-30T21:11:43.293Z,31.03
2019-01-30T21:14:09.939Z,26.80
2019-01-30T21:16:36.557Z,28.73
2019-01-30T21:19:03.391Z,26.30
2019-01-30T21:21:30.018Z,29.93
2019-01-30T21:23:56.597Z,28.53
2019-01-30T21:26:23.296Z,24.83
2019-01-30T21:28:49.865Z,23.87
2019-01-30T21:31:16.317Z,30.83
2019-01-30T21:33:44.973Z,27.07
2019-01-30T21:36:11.301Z,29.93
2019-01-30T21:38:37.905Z,20.40
2019-01-30T21:41:04.221Z,24.67
2019-01-30T21:43:30.968Z,23.80
2019-01-30T21:45:57.270Z,26.77
2019-01-30T21:48:23.836Z,26.70
2019-01-30T21:50:50.147Z,27.80
2019-01-30T21:53:16.492Z,28.13
2019-01-30T21:55:43.101Z,27.77
2019-01-30T21:58:09.426Z,24.50
2019-01-30T22:00:35.765Z,26.70
2019-01-30T22:03:02.525Z,29.73
2019-01-30T22:05:29.036Z,27.23
2019-01-30T22:08:00.869Z,32.20
2019-01-30T22:10:26.115Z,26.20
2019-01-30T22:12:54.924Z,29.73
2019-01-30T22:15:21.464Z,36.50
2019-01-30T22:17:48.099Z,26.93
2019-01-30T22:20:21.481Z,28.30
2019-01-30T22:22:48.051Z,28.97
2019-01-30T22:25:20.300Z,37.03
2019-01-30T22:27:46.689Z,32.53
2019-01-30T22:30:20.641Z,30.50
2019-01-30T22:32:47.338Z,30.27
2019-01-30T22:35:13.827Z,34.97
2019-01-30T22:37:40.473Z,32.10
2019-01-30T22:40:11.849Z,25.37
2019-01-30T22:42:38.381Z,28.23
2019-01-30T22:45:10.699Z,32.33
2019-01-30T22:47:37.089Z,26.17
2019-01-30T22:50:07.660Z,32.03
2019-01-30T22:52:34.260Z,28.73
2019-01-30T22:55:00.867Z,34.13
2019-01-30T22:57:27.189Z,27.13
2019-01-30T22:59:53.517Z,31.60
2019-01-30T23:02:20.062Z,31.27
2019-01-30T23:04:55.336Z,26.07
2019-01-30T23:07:39.489Z,29.43
2019-01-30T23:10:23.447Z,28.10
2019-01-30T23:13:04.547Z,31.90
2019-01-30T23:15:39.388Z,27.60
2019-01-30T23:18:36.927Z,31.50
2019-01-30T23:21:20.652Z,31.23
2019-01-30T23:24:07.628Z,31.40
2019-01-30T23:26:48.423Z,32.43
2019-01-30T23:29:54.468Z,30.97
2019-01-30T23:32:32.218Z,34.33
2019-01-30T23:35:16.611Z,32.93
2019-01-30T23:37:57.536Z,29.60
2019-01-30T23:40:42.187Z,30.83
2019-01-30T23:43:14.195Z,34.10
2019-01-30T23:46:04.090Z,28.73
2019-01-30T23:48:42.053Z,35.30
2019-01-30T23:51:30.802Z,30.97
2019-01-30T23:54:31.138Z,34.20
2019-01-30T23:57:28.512Z,34.27
